sensor_id;sensor_type;location;lat;lon;timestamp;pressure;altitude;pressure_sealevel;temperature;humidity
43681;BME280;29281;50.356;30.894;2023-01-29T00:00:32;100449.92;;;-1.81;100.00
43681;BME280;29281;50.356;30.894;2023-01-29T00:01:36;100456.95;;;-1.86;100.00
43681;BME280;29281;50.356;30.894;2023-01-29T00:02:39;100449.15;;;-1.86;100.00
43681;BME280;29281;50.356;30.894;2023-01-29T00:03:41;100450.94;;;-1.91;100.00
43681;BME280;29281;50.356;30.894;2023-01-29T00:04:45;100441.53;;;-2.00;100.00
43681;BME280;29281;50.356;30.894;2023-01-29T00:05:48;100447.63;;;-2.02;100.00
43681;BME280;29281;50.356;30.894;2023-01-29T00:06:51;100441.61;;;-2.07;100.00
43681;BME280;29281;50.356;30.894;2023-01-29T00:07:55;100447.78;;;-2.15;100.00
43681;BME280;29281;50.356;30.894;2023-01-29T00:09:02;100446.86;;;-2.12;100.00
43681;BME280;29281;50.356;30.894;2023-01-29T00:10:05;100444.24;;;-2.10;100.00
43681;BME280;29281;50.356;30.894;2023-01-29T00:11:08;100446.78;;;-2.04;100.00
43681;BME280;29281;50.356;30.894;2023-01-29T00:12:11;100452.88;;;-2.07;100.00
43681;BME280;29281;50.356;30.894;2023-01-29T00:13:15;100447.70;;;-2.10;100.00
43681;BME280;29281;50.356;30.894;2023-01-29T00:14:19;100449.47;;;-2.12;100.00
43681;BME280;29281;50.356;30.894;2023-01-29T00:15:22;100449.45;;;-2.10;100.00
43681;BME280;29281;50.356;30.894;2023-01-29T00:16:24;100460.91;;;-2.25;100.00
43681;BME280;29281;50.356;30.894;2023-01-29T00:17:29;100462.62;;;-2.24;100.00
43681;BME280;29281;50.356;30.894;2023-01-29T00:18:38;100457.36;;;-2.18;100.00
43681;BME280;29281;50.356;30.894;2023-01-29T00:19:42;100465.19;;;-2.20;100.00
43681;BME280;29281;50.356;30.894;2023-01-29T00:20:45;100463.41;;;-2.16;100.00
43681;BME280;29281;50.356;30.894;2023-01-29T00:21:51;100473.84;;;-2.18;100.00
43681;BME280;29281;50.356;30.894;2023-01-29T00:22:54;100473.00;;;-2.21;100.00
43681;BME280;29281;50.356;30.894;2023-01-29T00:23:58;100468.66;;;-2.21;100.00
43681;BME280;29281;50.356;30.894;2023-01-29T00:25:01;100472.98;;;-2.20;100.00
43681;BME280;29281;50.356;30.894;2023-01-29T00:26:05;100473.84;;;-2.18;100.00
43681;BME280;29281;50.356;30.894;2023-01-29T00:27:08;100467.75;;;-2.17;100.00
43681;BME280;29281;50.356;30.894;2023-01-29T00:28:11;100484.26;;;-2.19;100.00
43681;BME280;29281;50.356;30.894;2023-01-29T00:29:15;100474.77;;;-2.25;100.00
43681;BME280;29281;50.356;30.894;2023-01-29T00:30:20;100479.95;;;-2.22;100.00
43681;BME280;29281;50.356;30.894;2023-01-29T00:31:26;100480.87;;;-2.27;100.00
43681;BME280;29281;50.356;30.894;2023-01-29T00:32:31;100480.00;;;-2.28;100.00
43681;BME280;29281;50.356;30.894;2023-01-29T00:33:33;100480.94;;;-2.32;100.00
43681;BME280;29281;50.356;30.894;2023-01-29T00:34:37;100480.85;;;-2.26;100.00
43681;BME280;29281;50.356;30.894;2023-01-29T00:35:41;100478.34;;;-2.32;100.00
43681;BME280;29281;50.356;30.894;2023-01-29T00:36:44;100483.56;;;-2.35;100.00
43681;BME280;29281;50.356;30.894;2023-01-29T00:37:53;100483.47;;;-2.27;100.00
43681;BME280;29281;50.356;30.894;2023-01-29T00:38:58;100483.45;;;-2.26;100.00
43681;BME280;29281;50.356;30.894;2023-01-29T00:40:03;100486.91;;;-2.24;100.00
43681;BME280;29281;50.356;30.894;2023-01-29T00:41:12;100483.44;;;-2.24;100.00
43681;BME280;29281;50.356;30.894;2023-01-29T00:42:30;100481.73;;;-2.27;100.00
43681;BME280;29281;50.356;30.894;2023-01-29T00:43:52;100484.28;;;-2.22;100.00
43681;BME280;29281;50.356;30.894;2023-01-29T00:45:13;100475.59;;;-2.20;100.00
43681;BME280;29281;50.356;30.894;2023-01-29T00:46:16;100474.78;;;-2.26;100.00
43681;BME280;29281;50.356;30.894;2023-01-29T00:47:19;100480.82;;;-2.23;100.00
43681;BME280;29281;50.356;30.894;2023-01-29T00:48:34;100480.81;;;-2.21;100.00
43681;BME280;29281;50.356;30.894;2023-01-29T00:49:37;100481.88;;;-2.39;100.00
43681;BME280;29281;50.356;30.894;2023-01-29T00:50:40;100481.83;;;-2.34;100.00
43681;BME280;29281;50.356;30.894;2023-01-29T00:51:43;100490.41;;;-2.28;100.00
43681;BME280;29281;50.356;30.894;2023-01-29T00:52:48;100481.84;;;-2.36;100.00
43681;BME280;29281;50.356;30.894;2023-01-29T00:53:55;100478.34;;;-2.32;100.00
43681;BME280;29281;50.356;30.894;2023-01-29T00:55:02;100480.06;;;-2.31;100.00
43681;BME280;29281;50.356;30.894;2023-01-29T00:56:06;100480.13;;;-2.37;100.00
43681;BME280;29281;50.356;30.894;2023-01-29T00:57:10;100480.98;;;-2.36;100.00
43681;BME280;29281;50.356;30.894;2023-01-29T00:58:13;100470.58;;;-2.36;100.00
43681;BME280;29281;50.356;30.894;2023-01-29T00:59:17;100473.12;;;-2.30;100.00
43681;BME280;29281;50.356;30.894;2023-01-29T01:00:19;100468.80;;;-2.31;100.00
43681;BME280;29281;50.356;30.894;2023-01-29T01:01:22;100471.45;;;-2.37;100.00
43681;BME280;29281;50.356;30.894;2023-01-29T01:02:46;100475.77;;;-2.35;100.00
43681;BME280;29281;50.356;30.894;2023-01-29T01:04:09;100467.09;;;-2.35;100.00
43681;BME280;29281;50.356;30.894;2023-01-29T01:05:14;100472.27;;;-2.32;100.00
43681;BME280;29281;50.356;30.894;2023-01-29T01:06:21;100474.04;;;-2.36;100.00
43681;BME280;29281;50.356;30.894;2023-01-29T01:07:26;100478.38;;;-2.36;100.00
43681;BME280;29281;50.356;30.894;2023-01-29T01:08:30;100476.63;;;-2.34;100.00
43681;BME280;29281;50.356;30.894;2023-01-29T01:09:50;100477.55;;;-2.41;100.00
43681;BME280;29281;50.356;30.894;2023-01-29T01:11:13;100473.17;;;-2.36;100.00
43681;BME280;29281;50.356;30.894;2023-01-29T01:12:17;100481.11;;;-2.47;100.00
43681;BME280;29281;50.356;30.894;2023-01-29T01:13:21;100480.22;;;-2.44;100.00
43681;BME280;29281;50.356;30.894;2023-01-29T01:14:25;100484.48;;;-2.40;100.00
43681;BME280;29281;50.356;30.894;2023-01-29T01:15:30;100482.01;;;-2.51;100.00
43681;BME280;29281;50.356;30.894;2023-01-29T01:16:33;100479.39;;;-2.50;100.00
43681;BME280;29281;50.356;30.894;2023-01-29T01:17:37;100477.57;;;-2.43;100.00
43681;BME280;29281;50.356;30.894;2023-01-29T01:18:43;100475.83;;;-2.42;100.00
43681;BME280;29281;50.356;30.894;2023-01-29T01:19:46;100477.66;;;-2.49;100.00
43681;BME280;29281;50.356;30.894;2023-01-29T01:20:49;100480.26;;;-2.49;100.00
43681;BME280;29281;50.356;30.894;2023-01-29T01:21:54;100476.81;;;-2.53;100.00
43681;BME280;29281;50.356;30.894;2023-01-29T01:22:58;100475.98;;;-2.56;100.00
43681;BME280;29281;50.356;30.894;2023-01-29T01:24:04;100479.45;;;-2.57;100.00
43681;BME280;29281;50.356;30.894;2023-01-29T01:25:09;100477.86;;;-2.70;100.00
43681;BME280;29281;50.356;30.894;2023-01-29T01:26:14;100470.09;;;-2.75;100.00
43681;BME280;29281;50.356;30.894;2023-01-29T01:27:17;100478.00;;;-2.86;100.00
43681;BME280;29281;50.356;30.894;2023-01-29T01:28:21;100471.92;;;-2.83;100.00
43681;BME280;29281;50.356;30.894;2023-01-29T01:29:25;100478.83;;;-2.80;100.00
43681;BME280;29281;50.356;30.894;2023-01-29T01:30:28;100478.97;;;-2.96;100.00
43681;BME280;29281;50.356;30.894;2023-01-29T01:31:33;100477.20;;;-2.91;100.00
43681;BME280;29281;50.356;30.894;2023-01-29T01:32:37;100475.42;;;-2.89;100.00
43681;BME280;29281;50.356;30.894;2023-01-29T01:33:40;100480.63;;;-2.90;100.00
43681;BME280;29281;50.356;30.894;2023-01-29T01:34:45;100478.12;;;-2.98;100.00
43681;BME280;29281;50.356;30.894;2023-01-29T01:35:50;100476.41;;;-3.00;100.00
43681;BME280;29281;50.356;30.894;2023-01-29T01:36:53;100479.84;;;-2.97;100.00
43681;BME280;29281;50.356;30.894;2023-01-29T01:37:59;100478.16;;;-3.04;100.00
43681;BME280;29281;50.356;30.894;2023-01-29T01:39:03;100475.51;;;-2.96;100.00
43681;BME280;29281;50.356;30.894;2023-01-29T01:40:09;100479.88;;;-3.03;100.00
43681;BME280;29281;50.356;30.894;2023-01-29T01:41:20;100472.08;;;-3.01;100.00
43681;BME280;29281;50.356;30.894;2023-01-29T01:42:21;100476.41;;;-3.02;100.00
43681;BME280;29281;50.356;30.894;2023-01-29T01:43:25;100475.64;;;-3.11;100.00
43681;BME280;29281;50.356;30.894;2023-01-29T01:44:48;100468.72;;;-3.12;100.00
43681;BME280;29281;50.356;30.894;2023-01-29T01:45:55;100476.49;;;-3.09;100.00
43681;BME280;29281;50.356;30.894;2023-01-29T01:47:01;100474.70;;;-3.04;100.00
43681;BME280;29281;50.356;30.894;2023-01-29T01:49:15;100479.94;;;-3.06;100.00
43681;BME280;29281;50.356;30.894;2023-01-29T01:50:22;100474.73;;;-3.06;100.00
43681;BME280;29281;50.356;30.894;2023-01-29T01:51:26;100479.94;;;-3.07;100.00
43681;BME280;29281;50.356;30.894;2023-01-29T01:52:34;100479.07;;;-3.06;100.00
43681;BME280;29281;50.356;30.894;2023-01-29T01:53:44;100474.73;;;-3.06;100.00
43681;BME280;29281;50.356;30.894;2023-01-29T01:54:47;100479.89;;;-3.04;100.00
43681;BME280;29281;50.356;30.894;2023-01-29T01:55:52;100479.88;;;-3.01;100.00
43681;BME280;29281;50.356;30.894;2023-01-29T01:56:57;100484.20;;;-3.00;100.00
43681;BME280;29281;50.356;30.894;2023-01-29T01:58:05;100479.03;;;-3.05;100.00
43681;BME280;29281;50.356;30.894;2023-01-29T01:59:12;100483.47;;;-3.19;100.00
43681;BME280;29281;50.356;30.894;2023-01-29T02:00:17;100480.00;;;-3.16;100.00
43681;BME280;29281;50.356;30.894;2023-01-29T02:01:21;100480.87;;;-3.17;100.00
43681;BME280;29281;50.356;30.894;2023-01-29T02:02:31;100478.33;;;-3.22;100.00
43681;BME280;29281;50.356;30.894;2023-01-29T02:03:55;100479.25;;;-3.34;100.00
43681;BME280;29281;50.356;30.894;2023-01-29T02:05:17;100483.66;;;-3.42;100.00
43681;BME280;29281;50.356;30.894;2023-01-29T02:06:38;100474.92;;;-3.33;100.00
43681;BME280;29281;50.356;30.894;2023-01-29T02:08:02;100480.07;;;-3.24;100.00
43681;BME280;29281;50.356;30.894;2023-01-29T02:09:26;100486.05;;;-3.14;100.00
43681;BME280;29281;50.356;30.894;2023-01-29T02:10:41;100492.09;;;-3.11;100.00
43681;BME280;29281;50.356;30.894;2023-01-29T02:11:45;100483.42;;;-3.10;100.00
43681;BME280;29281;50.356;30.894;2023-01-29T02:12:49;100483.44;;;-3.13;100.00
43681;BME280;29281;50.356;30.894;2023-01-29T02:13:54;100486.89;;;-3.11;100.00
43681;BME280;29281;50.356;30.894;2023-01-29T02:14:59;100483.45;;;-3.14;100.00
43681;BME280;29281;50.356;30.894;2023-01-29T02:16:02;100483.47;;;-3.19;100.00
43681;BME280;29281;50.356;30.894;2023-01-29T02:17:09;100485.26;;;-3.23;100.00
43681;BME280;29281;50.356;30.894;2023-01-29T02:18:13;100478.36;;;-3.27;100.00
43681;BME280;29281;50.356;30.894;2023-01-29T02:19:40;100481.75;;;-3.20;100.00
43681;BME280;29281;50.356;30.894;2023-01-29T02:20:48;100478.36;;;-3.27;100.00
43681;BME280;29281;50.356;30.894;2023-01-29T02:22:05;100489.52;;;-3.17;100.00
43681;BME280;29281;50.356;30.894;2023-01-29T02:23:22;100487.80;;;-3.20;100.00
43681;BME280;29281;50.356;30.894;2023-01-29T02:24:42;100486.08;;;-3.21;100.00
43681;BME280;29281;50.356;30.894;2023-01-29T02:27:02;100484.34;;;-3.20;100.00
43681;BME280;29281;50.356;30.894;2023-01-29T02:29:18;100478.34;;;-3.25;100.00
43681;BME280;29281;50.356;30.894;2023-01-29T02:31:40;100474.82;;;-3.20;100.00
43681;BME280;29281;50.356;30.894;2023-01-29T02:32:46;100484.39;;;-3.22;100.00
43681;BME280;29281;50.356;30.894;2023-01-29T02:37:31;100487.86;;;-3.24;100.00
43681;BME280;29281;50.356;30.894;2023-01-29T02:38:42;100482.70;;;-3.30;100.00
43681;BME280;29281;50.356;30.894;2023-01-29T02:39:56;100483.52;;;-3.22;100.00
43681;BME280;29281;50.356;30.894;2023-01-29T02:41:03;100482.66;;;-3.21;100.00
43681;BME280;29281;50.356;30.894;2023-01-29T02:42:24;100483.52;;;-3.22;100.00
43681;BME280;29281;50.356;30.894;2023-01-29T02:43:29;100490.45;;;-3.23;100.00
43681;BME280;29281;50.356;30.894;2023-01-29T02:44:34;100483.54;;;-3.25;100.00
43681;BME280;29281;50.356;30.894;2023-01-29T02:45:42;100481.80;;;-3.25;100.00
43681;BME280;29281;50.356;30.894;2023-01-29T02:46:56;100482.66;;;-3.23;100.00
43681;BME280;29281;50.356;30.894;2023-01-29T02:47:59;100482.66;;;-3.23;100.00
43681;BME280;29281;50.356;30.894;2023-01-29T02:49:18;100484.34;;;-3.20;100.00
43681;BME280;29281;50.356;30.894;2023-01-29T02:53:11;100488.72;;;-3.22;100.00
43681;BME280;29281;50.356;30.894;2023-01-29T02:54:20;100486.14;;;-3.25;100.00
43681;BME280;29281;50.356;30.894;2023-01-29T02:55:27;100487.86;;;-3.24;100.00
43681;BME280;29281;50.356;30.894;2023-01-29T02:56:35;100493.93;;;-3.25;100.00
43681;BME280;29281;50.356;30.894;2023-01-29T02:57:42;100487.11;;;-3.41;100.00
43681;BME280;29281;50.356;30.894;2023-01-29T02:58:45;100492.22;;;-3.29;100.00
43681;BME280;29281;50.356;30.894;2023-01-29T02:59:57;100490.46;;;-3.24;100.00
43681;BME280;29281;50.356;30.894;2023-01-29T03:01:03;100486.08;;;-3.21;100.00
43681;BME280;29281;50.356;30.894;2023-01-29T03:02:09;100493.00;;;-3.20;100.00
43681;BME280;29281;50.356;30.894;2023-01-29T03:03:17;100491.33;;;-3.25;100.00
43681;BME280;29281;50.356;30.894;2023-01-29T03:04:23;100490.48;;;-3.29;100.00
43681;BME280;29281;50.356;30.894;2023-01-29T03:05:36;100493.15;;;-3.36;100.00
43681;BME280;29281;50.356;30.894;2023-01-29T03:06:40;100494.02;;;-3.37;100.00
43681;BME280;29281;50.356;30.894;2023-01-29T03:07:51;100494.92;;;-3.46;100.00
43681;BME280;29281;50.356;30.894;2023-01-29T03:08:53;100490.56;;;-3.39;100.00
43681;BME280;29281;50.356;30.894;2023-01-29T03:09:56;100495.77;;;-3.39;100.00
43681;BME280;29281;50.356;30.894;2023-01-29T03:11:00;100494.02;;;-3.37;100.00
43681;BME280;29281;50.356;30.894;2023-01-29T03:12:18;100486.27;;;-3.43;100.00
43681;BME280;29281;50.356;30.894;2023-01-29T03:13:33;100491.45;;;-3.42;100.00
43681;BME280;29281;50.356;30.894;2023-01-29T03:14:36;100484.53;;;-3.44;100.00
43681;BME280;29281;50.356;30.894;2023-01-29T03:15:51;100490.56;;;-3.39;100.00
43681;BME280;29281;50.356;30.894;2023-01-29T03:17:03;100484.45;;;-3.35;100.00
43681;BME280;29281;50.356;30.894;2023-01-29T03:18:14;100484.44;;;-3.31;100.00
43681;BME280;29281;50.356;30.894;2023-01-29T03:19:35;100487.89;;;-3.30;100.00
43681;BME280;29281;50.356;30.894;2023-01-29T03:20:41;100486.17;;;-3.31;100.00
43681;BME280;29281;50.356;30.894;2023-01-29T03:21:56;100482.72;;;-3.33;100.00
43681;BME280;29281;50.356;30.894;2023-01-29T03:23:06;100494.84;;;-3.35;100.00
43681;BME280;29281;50.356;30.894;2023-01-29T03:24:11;100494.05;;;-3.45;100.00
43681;BME280;29281;50.356;30.894;2023-01-29T03:25:34;100489.74;;;-3.49;100.00
43681;BME280;29281;50.356;30.894;2023-01-29T03:27:06;100492.30;;;-3.40;100.00
43681;BME280;29281;50.356;30.894;2023-01-29T03:28:29;100496.64;;;-3.42;100.00
43681;BME280;29281;50.356;30.894;2023-01-29T03:29:52;100500.98;;;-3.47;100.00
43681;BME280;29281;50.356;30.894;2023-01-29T03:31:18;100501.05;;;-3.55;100.00
43681;BME280;29281;50.356;30.894;2023-01-29T03:32:41;100502.73;;;-3.49;100.00
43681;BME280;29281;50.356;30.894;2023-01-29T03:33:50;100497.52;;;-3.44;100.00
43681;BME280;29281;50.356;30.894;2023-01-29T03:34:56;100493.19;;;-3.45;100.00
43681;BME280;29281;50.356;30.894;2023-01-29T03:36:04;100507.02;;;-3.42;100.00
43681;BME280;29281;50.356;30.894;2023-01-29T03:37:50;100493.10;;;-3.33;100.00
43681;BME280;29281;50.356;30.894;2023-01-29T03:38:15;100484.42;;;-3.28;100.00
43681;BME280;29281;50.356;30.894;2023-01-29T03:39:19;100487.78;;;-3.15;100.00
43681;BME280;29281;50.356;30.894;2023-01-29T03:40:25;100493.74;;;-3.04;100.00
43681;BME280;29281;50.356;30.894;2023-01-29T03:41:32;100496.33;;;-3.01;100.00
43681;BME280;29281;50.356;30.894;2023-01-29T03:42:48;100489.30;;;-2.90;100.00
43681;BME280;29281;50.356;30.894;2023-01-29T03:43:54;100497.91;;;-2.83;100.00
43681;BME280;29281;50.356;30.894;2023-01-29T03:45:03;100494.39;;;-2.76;100.00
43681;BME280;29281;50.356;30.894;2023-01-29T03:46:09;100489.22;;;-2.79;100.00
43681;BME280;29281;50.356;30.894;2023-01-29T03:47:21;100492.70;;;-2.81;100.00
43681;BME280;29281;50.356;30.894;2023-01-29T03:52:06;100495.13;;;-2.62;100.00
43681;BME280;29281;50.356;30.894;2023-01-29T03:54:32;100495.14;;;-2.63;100.00
43681;BME280;29281;50.356;30.894;2023-01-29T03:56:24;100495.88;;;-2.52;100.00
43681;BME280;29281;50.356;30.894;2023-01-29T03:58:05;100497.61;;;-2.51;100.00
43681;BME280;29281;50.356;30.894;2023-01-29T04:00:37;100505.25;;;-2.36;100.00
43681;BME280;29281;50.356;30.894;2023-01-29T04:01:44;100501.75;;;-2.32;100.00
43681;BME280;29281;50.356;30.894;2023-01-29T04:04:23;100506.88;;;-2.27;100.00
43681;BME280;29281;50.356;30.894;2023-01-29T04:05:24;100502.55;;;-2.28;100.00
43681;BME280;29281;50.356;30.894;2023-01-29T04:06:31;100491.33;;;-2.30;100.00
43681;BME280;29281;50.356;30.894;2023-01-29T04:07:38;100491.39;;;-2.38;100.00
43681;BME280;29281;50.356;30.894;2023-01-29T04:09:55;100490.63;;;-2.46;100.00
43681;BME280;29281;50.356;30.894;2023-01-29T04:11:00;100494.27;;;-2.62;100.00
43681;BME280;29281;50.356;30.894;2023-01-29T04:12:07;100489.81;;;-2.51;100.00
43681;BME280;29281;50.356;30.894;2023-01-29T04:13:11;100492.38;;;-2.46;100.00
43681;BME280;29281;50.356;30.894;2023-01-29T04:14:16;100490.58;;;-2.43;100.00
43681;BME280;29281;50.356;30.894;2023-01-29T04:15:21;100491.51;;;-2.47;100.00
43681;BME280;29281;50.356;30.894;2023-01-29T04:16:28;100492.39;;;-2.50;100.00
43681;BME280;29281;50.356;30.894;2023-01-29T04:17:36;100492.31;;;-2.43;100.00
43681;BME280;29281;50.356;30.894;2023-01-29T04:18:45;100488.07;;;-2.51;100.00
43681;BME280;29281;50.356;30.894;2023-01-29T04:19:53;100492.38;;;-2.46;100.00
43681;BME280;29281;50.356;30.894;2023-01-29T04:20:57;100487.09;;;-2.40;100.00
43681;BME280;29281;50.356;30.894;2023-01-29T04:22:08;100482.75;;;-2.40;100.00
43681;BME280;29281;50.356;30.894;2023-01-29T04:23:22;100485.58;;;-2.60;100.00
43681;BME280;29281;50.356;30.894;2023-01-29T04:24:26;100488.94;;;-2.50;100.00
43681;BME280;29281;50.356;30.894;2023-01-29T04:25:30;100488.74;;;-2.32;100.00
43681;BME280;29281;50.356;30.894;2023-01-29T04:26:54;100487.06;;;-2.37;100.00
43681;BME280;29281;50.356;30.894;2023-01-29T04:27:56;100481.09;;;-2.45;100.00
43681;BME280;29281;50.356;30.894;2023-01-29T04:29:13;100487.20;;;-2.50;100.00
43681;BME280;29281;50.356;30.894;2023-01-29T04:31:33;100479.20;;;-2.31;100.00
43681;BME280;29281;50.356;30.894;2023-01-29T04:34:11;100481.70;;;-2.24;100.00
43681;BME280;29281;50.356;30.894;2023-01-29T04:36:32;100479.88;;;-2.14;100.00
43681;BME280;29281;50.356;30.894;2023-01-29T04:37:28;100477.30;;;-2.17;100.00
43681;BME280;29281;50.356;30.894;2023-01-29T04:39:48;100478.25;;;-2.26;100.00
43681;BME280;29281;50.356;30.894;2023-01-29T04:42:11;100476.52;;;-2.25;100.00
43681;BME280;29281;50.356;30.894;2023-01-29T04:45:35;100479.92;;;-2.19;100.00
43681;BME280;29281;50.356;30.894;2023-01-29T04:46:41;100484.26;;;-2.19;100.00
43681;BME280;29281;50.356;30.894;2023-01-29T04:52:41;100490.66;;;-2.49;100.00
43681;BME280;29281;50.356;30.894;2023-01-29T04:53:44;100491.51;;;-2.47;100.00
43681;BME280;29281;50.356;30.894;2023-01-29T04:54:52;100489.80;;;-2.50;100.00
43681;BME280;29281;50.356;30.894;2023-01-29T04:55:57;100484.59;;;-2.50;100.00
43681;BME280;29281;50.356;30.894;2023-01-29T04:57:15;100486.25;;;-2.44;100.00
43681;BME280;29281;50.356;30.894;2023-01-29T04:58:25;100481.95;;;-2.45;100.00
43681;BME280;29281;50.356;30.894;2023-01-29T04:59:29;100493.26;;;-2.49;100.00
43681;BME280;29281;50.356;30.894;2023-01-29T05:00:34;100488.11;;;-2.55;100.00
43681;BME280;29281;50.356;30.894;2023-01-29T05:01:40;100481.17;;;-2.55;100.00
43681;BME280;29281;50.356;30.894;2023-01-29T05:02:44;100483.80;;;-2.58;100.00
43681;BME280;29281;50.356;30.894;2023-01-29T05:03:48;100480.30;;;-2.55;100.00
43681;BME280;29281;50.356;30.894;2023-01-29T05:04:51;100486.47;;;-2.64;100.00
43681;BME280;29281;50.356;30.894;2023-01-29T05:05:59;100495.15;;;-2.65;100.00
43681;BME280;29281;50.356;30.894;2023-01-29T05:07:05;100492.58;;;-2.69;100.00
43681;BME280;29281;50.356;30.894;2023-01-29T05:08:11;100488.28;;;-2.73;100.00
43681;BME280;29281;50.356;30.894;2023-01-29T05:09:16;100489.11;;;-2.68;100.00
43681;BME280;29281;50.356;30.894;2023-01-29T05:10:21;100498.75;;;-2.79;100.00
43681;BME280;29281;50.356;30.894;2023-01-29T05:11:24;100495.28;;;-2.78;100.00
43681;BME280;29281;50.356;30.894;2023-01-29T05:12:27;100489.25;;;-2.84;100.00
43681;BME280;29281;50.356;30.894;2023-01-29T05:13:32;100496.30;;;-2.98;100.00
43681;BME280;29281;50.356;30.894;2023-01-29T05:14:36;100495.39;;;-2.91;100.00
43681;BME280;29281;50.356;30.894;2023-01-29T05:15:43;100499.66;;;-2.85;100.00
43681;BME280;29281;50.356;30.894;2023-01-29T05:16:46;100497.00;;;-2.76;100.00
43681;BME280;29281;50.356;30.894;2023-01-29T05:17:51;100496.16;;;-2.79;100.00
43681;BME280;29281;50.356;30.894;2023-01-29T05:18:54;100502.27;;;-2.87;100.00
43681;BME280;29281;50.356;30.894;2023-01-29T05:19:58;100500.53;;;-2.86;100.00
43681;BME280;29281;50.356;30.894;2023-01-29T05:21:03;100501.41;;;-2.87;100.00
43681;BME280;29281;50.356;30.894;2023-01-29T05:22:07;100505.67;;;-2.78;100.00
43681;BME280;29281;50.356;30.894;2023-01-29T05:23:16;100503.12;;;-2.86;100.00
43681;BME280;29281;50.356;30.894;2023-01-29T05:24:21;100499.62;;;-2.79;100.00
43681;BME280;29281;50.356;30.894;2023-01-29T05:25:25;100498.64;;;-2.69;100.00
43681;BME280;29281;50.356;30.894;2023-01-29T05:26:28;100496.02;;;-2.66;100.00
43681;BME280;29281;50.356;30.894;2023-01-29T05:27:52;100500.34;;;-2.65;100.00
43681;BME280;29281;50.356;30.894;2023-01-29T05:29:12;100504.70;;;-2.67;100.00
43681;BME280;29281;50.356;30.894;2023-01-29T05:30:15;100506.23;;;-2.46;100.00
43681;BME280;29281;50.356;30.894;2023-01-29T05:31:20;100503.58;;;-2.43;100.00
43681;BME280;29281;50.356;30.894;2023-01-29T05:32:28;100505.22;;;-2.33;100.00
43681;BME280;29281;50.356;30.894;2023-01-29T05:33:30;100508.60;;;-2.26;100.00
43681;BME280;29281;50.356;30.894;2023-01-29T05:34:33;100506.86;;;-2.26;100.00
43681;BME280;29281;50.356;30.894;2023-01-29T05:35:36;100512.08;;;-2.27;100.00
43681;BME280;29281;50.356;30.894;2023-01-29T05:36:40;100510.41;;;-2.30;100.00
43681;BME280;29281;50.356;30.894;2023-01-29T05:37:43;100512.05;;;-2.24;100.00
43681;BME280;29281;50.356;30.894;2023-01-29T05:38:46;100508.55;;;-2.20;100.00
43681;BME280;29281;50.356;30.894;2023-01-29T05:39:49;100516.23;;;-2.11;100.00
43681;BME280;29281;50.356;30.894;2023-01-29T05:40:53;100518.84;;;-2.11;100.00
43681;BME280;29281;50.356;30.894;2023-01-29T05:41:56;100511.91;;;-2.12;100.00
43681;BME280;29281;50.356;30.894;2023-01-29T05:42:59;100515.36;;;-2.10;100.00
43681;BME280;29281;50.356;30.894;2023-01-29T05:44:02;100515.30;;;-2.04;100.00
43681;BME280;29281;50.356;30.894;2023-01-29T05:45:06;100515.26;;;-1.99;100.00
43681;BME280;29281;50.356;30.894;2023-01-29T05:46:10;100511.72;;;-1.95;100.00
43681;BME280;29281;50.356;30.894;2023-01-29T05:47:17;100509.97;;;-1.95;100.00
43681;BME280;29281;50.356;30.894;2023-01-29T05:48:20;100515.12;;;-1.89;100.00
43681;BME280;29281;50.356;30.894;2023-01-29T05:49:24;100520.34;;;-1.90;100.00
43681;BME280;29281;50.356;30.894;2023-01-29T05:50:28;100520.36;;;-1.92;100.00
43681;BME280;29281;50.356;30.894;2023-01-29T05:51:31;100516.03;;;-1.93;100.00
43681;BME280;29281;50.356;30.894;2023-01-29T05:52:37;100512.50;;;-1.87;100.00
43681;BME280;29281;50.356;30.894;2023-01-29T05:53:41;100509.98;;;-1.96;100.00
43681;BME280;29281;50.356;30.894;2023-01-29T05:54:46;100509.96;;;-1.93;100.00
43681;BME280;29281;50.356;30.894;2023-01-29T05:55:50;100512.69;;;-2.02;100.00
43681;BME280;29281;50.356;30.894;2023-01-29T05:56:53;100505.59;;;-1.90;100.00
43681;BME280;29281;50.356;30.894;2023-01-29T05:57:56;100504.70;;;-1.89;100.00
43681;BME280;29281;50.356;30.894;2023-01-29T05:58:58;100504.59;;;-1.81;100.00
43681;BME280;29281;50.356;30.894;2023-01-29T06:00:01;100509.93;;;-1.90;100.00
43681;BME280;29281;50.356;30.894;2023-01-29T06:01:14;100514.24;;;-1.88;100.00
43681;BME280;29281;50.356;30.894;2023-01-29T06:02:18;100507.27;;;-1.84;100.00
43681;BME280;29281;50.356;30.894;2023-01-29T06:03:21;100501.06;;;-1.75;100.00
43681;BME280;29281;50.356;30.894;2023-01-29T06:04:24;100503.69;;;-1.77;100.00
43681;BME280;29281;50.356;30.894;2023-01-29T06:05:29;100500.16;;;-1.73;100.00
43681;BME280;29281;50.356;30.894;2023-01-29T06:06:32;100507.11;;;-1.73;100.00
43681;BME280;29281;50.356;30.894;2023-01-29T06:07:35;100510.58;;;-1.73;100.00
43681;BME280;29281;50.356;30.894;2023-01-29T06:08:38;100505.33;;;-1.68;100.00
43681;BME280;29281;50.356;30.894;2023-01-29T06:09:42;100509.53;;;-1.60;100.00
43681;BME280;29281;50.356;30.894;2023-01-29T06:10:45;100508.02;;;-1.76;100.00
43681;BME280;29281;50.356;30.894;2023-01-29T06:11:48;100499.28;;;-1.72;100.00
43681;BME280;29281;50.356;30.894;2023-01-29T06:12:51;100502.73;;;-1.70;100.00
43681;BME280;29281;50.356;30.894;2023-01-29T06:13:55;100502.60;;;-1.61;100.00
43681;BME280;29281;50.356;30.894;2023-01-29T06:14:58;100509.50;;;-1.57;100.00
43681;BME280;29281;50.356;30.894;2023-01-29T06:16:04;100510.23;;;-1.49;100.00
43681;BME280;29281;50.356;30.894;2023-01-29T06:17:10;100505.91;;;-1.50;100.00